sensor_id;sensor_type;location;lat;lon;timestamp;P1;durP1;ratioP1;P2;durP2;ratioP2
3407;SDS011;1717;50.240;8.406;2023-11-19T00:01:10;4.03;;;3.63;;
3407;SDS011;1717;50.240;8.406;2023-11-19T00:03:37;4.17;;;3.77;;
3407;SDS011;1717;50.240;8.406;2023-11-19T00:06:04;4.67;;;4.00;;
3407;SDS011;1717;50.240;8.406;2023-11-19T00:08:33;4.27;;;3.87;;
3407;SDS011;1717;50.240;8.406;2023-11-19T00:11:00;4.20;;;3.80;;
3407;SDS011;1717;50.240;8.406;2023-11-19T00:13:28;5.10;;;4.70;;
3407;SDS011;1717;50.240;8.406;2023-11-19T00:15:55;4.17;;;3.60;;
3407;SDS011;1717;50.240;8.406;2023-11-19T00:18:22;4.50;;;4.10;;
3407;SDS011;1717;50.240;8.406;2023-11-19T00:20:49;4.30;;;3.83;;
3407;SDS011;1717;50.240;8.406;2023-11-19T00:23:16;5.03;;;4.40;;
3407;SDS011;1717;50.240;8.406;2023-11-19T00:25:44;5.17;;;4.67;;
3407;SDS011;1717;50.240;8.406;2023-11-19T00:28:13;4.63;;;4.10;;
3407;SDS011;1717;50.240;8.406;2023-11-19T00:30:39;4.20;;;3.80;;
3407;SDS011;1717;50.240;8.406;2023-11-19T00:33:06;4.10;;;3.80;;
3407;SDS011;1717;50.240;8.406;2023-11-19T00:35:33;4.53;;;4.10;;
3407;SDS011;1717;50.240;8.406;2023-11-19T00:38:00;7.03;;;4.83;;
3407;SDS011;1717;50.240;8.406;2023-11-19T00:40:29;4.87;;;3.60;;
3407;SDS011;1717;50.240;8.406;2023-11-19T00:42:57;5.50;;;4.40;;
3407;SDS011;1717;50.240;8.406;2023-11-19T00:45:24;4.00;;;3.70;;
3407;SDS011;1717;50.240;8.406;2023-11-19T00:47:52;4.50;;;3.87;;
3407;SDS011;1717;50.240;8.406;2023-11-19T00:50:19;4.07;;;3.67;;
3407;SDS011;1717;50.240;8.406;2023-11-19T00:52:46;4.37;;;4.00;;
3407;SDS011;1717;50.240;8.406;2023-11-19T00:55:13;3.43;;;3.13;;
3407;SDS011;1717;50.240;8.406;2023-11-19T00:57:40;4.00;;;3.70;;
3407;SDS011;1717;50.240;8.406;2023-11-19T01:00:08;2.77;;;2.57;;
3407;SDS011;1717;50.240;8.406;2023-11-19T01:02:43;3.50;;;3.10;;
3407;SDS011;1717;50.240;8.406;2023-11-19T01:05:10;3.13;;;2.63;;
3407;SDS011;1717;50.240;8.406;2023-11-19T01:07:40;2.77;;;2.57;;
3407;SDS011;1717;50.240;8.406;2023-11-19T01:10:07;5.40;;;2.97;;
3407;SDS011;1717;50.240;8.406;2023-11-19T01:12:35;2.60;;;2.40;;
3407;SDS011;1717;50.240;8.406;2023-11-19T01:15:03;2.80;;;2.60;;
3407;SDS011;1717;50.240;8.406;2023-11-19T01:17:31;2.27;;;2.07;;
3407;SDS011;1717;50.240;8.406;2023-11-19T01:19:58;2.57;;;2.37;;
3407;SDS011;1717;50.240;8.406;2023-11-19T01:22:25;2.60;;;2.33;;
3407;SDS011;1717;50.240;8.406;2023-11-19T01:24:52;2.60;;;2.40;;
3407;SDS011;1717;50.240;8.406;2023-11-19T01:27:19;2.43;;;2.23;;
3407;SDS011;1717;50.240;8.406;2023-11-19T01:29:46;2.23;;;2.03;;
3407;SDS011;1717;50.240;8.406;2023-11-19T01:32:13;3.23;;;2.70;;
3407;SDS011;1717;50.240;8.406;2023-11-19T01:34:41;1.90;;;1.80;;
3407;SDS011;1717;50.240;8.406;2023-11-19T01:37:08;1.97;;;1.87;;
3407;SDS011;1717;50.240;8.406;2023-11-19T01:39:36;2.80;;;2.60;;
3407;SDS011;1717;50.240;8.406;2023-11-19T01:42:04;2.90;;;2.70;;
3407;SDS011;1717;50.240;8.406;2023-11-19T01:44:31;2.90;;;2.40;;
3407;SDS011;1717;50.240;8.406;2023-11-19T01:46:58;2.53;;;2.33;;
3407;SDS011;1717;50.240;8.406;2023-11-19T01:49:26;1.83;;;1.73;;
3407;SDS011;1717;50.240;8.406;2023-11-19T01:51:55;2.60;;;2.40;;
3407;SDS011;1717;50.240;8.406;2023-11-19T01:54:24;3.10;;;2.80;;
3407;SDS011;1717;50.240;8.406;2023-11-19T01:56:51;2.73;;;2.53;;
3407;SDS011;1717;50.240;8.406;2023-11-19T01:59:21;2.80;;;2.60;;
3407;SDS011;1717;50.240;8.406;2023-11-19T02:01:51;2.60;;;2.40;;
3407;SDS011;1717;50.240;8.406;2023-11-19T02:04:19;2.80;;;2.60;;
3407;SDS011;1717;50.240;8.406;2023-11-19T02:06:46;3.10;;;2.90;;
3407;SDS011;1717;50.240;8.406;2023-11-19T02:09:18;3.07;;;2.77;;
3407;SDS011;1717;50.240;8.406;2023-11-19T02:11:46;3.03;;;2.80;;
3407;SDS011;1717;50.240;8.406;2023-11-19T02:14:16;3.50;;;3.23;;
3407;SDS011;1717;50.240;8.406;2023-11-19T02:16:43;3.30;;;3.00;;
3407;SDS011;1717;50.240;8.406;2023-11-19T02:19:10;3.87;;;3.57;;
3407;SDS011;1717;50.240;8.406;2023-11-19T02:21:37;3.63;;;3.33;;
3407;SDS011;1717;50.240;8.406;2023-11-19T02:24:06;4.23;;;3.83;;
3407;SDS011;1717;50.240;8.406;2023-11-19T02:26:37;4.23;;;3.83;;
3407;SDS011;1717;50.240;8.406;2023-11-19T02:29:11;3.83;;;3.53;;
3407;SDS011;1717;50.240;8.406;2023-11-19T02:31:38;4.20;;;3.80;;
3407;SDS011;1717;50.240;8.406;2023-11-19T02:34:05;3.57;;;3.27;;
3407;SDS011;1717;50.240;8.406;2023-11-19T02:36:32;4.30;;;3.80;;
3407;SDS011;1717;50.240;8.406;2023-11-19T02:38:59;3.20;;;2.90;;
3407;SDS011;1717;50.240;8.406;2023-11-19T02:41:26;3.83;;;3.17;;
3407;SDS011;1717;50.240;8.406;2023-11-19T02:43:53;3.27;;;2.97;;
3407;SDS011;1717;50.240;8.406;2023-11-19T02:46:23;4.90;;;4.50;;
3407;SDS011;1717;50.240;8.406;2023-11-19T02:48:51;3.13;;;2.83;;
3407;SDS011;1717;50.240;8.406;2023-11-19T02:51:18;3.50;;;3.20;;
3407;SDS011;1717;50.240;8.406;2023-11-19T02:53:45;4.10;;;3.70;;
3407;SDS011;1717;50.240;8.406;2023-11-19T02:56:13;2.97;;;2.73;;
3407;SDS011;1717;50.240;8.406;2023-11-19T02:58:45;2.90;;;2.70;;
3407;SDS011;1717;50.240;8.406;2023-11-19T03:01:14;3.70;;;3.20;;
3407;SDS011;1717;50.240;8.406;2023-11-19T03:03:54;2.47;;;2.27;;
3407;SDS011;1717;50.240;8.406;2023-11-19T03:06:22;2.80;;;2.60;;
3407;SDS011;1717;50.240;8.406;2023-11-19T03:08:49;2.17;;;2.07;;
3407;SDS011;1717;50.240;8.406;2023-11-19T03:11:16;2.83;;;2.63;;
3407;SDS011;1717;50.240;8.406;2023-11-19T03:13:43;2.30;;;2.10;;
3407;SDS011;1717;50.240;8.406;2023-11-19T03:16:10;2.80;;;2.60;;
3407;SDS011;1717;50.240;8.406;2023-11-19T03:18:38;2.70;;;2.50;;
3407;SDS011;1717;50.240;8.406;2023-11-19T03:21:05;2.93;;;2.63;;
3407;SDS011;1717;50.240;8.406;2023-11-19T03:23:33;2.60;;;2.40;;
3407;SDS011;1717;50.240;8.406;2023-11-19T03:26:00;5.27;;;3.30;;
3407;SDS011;1717;50.240;8.406;2023-11-19T03:28:28;3.60;;;3.30;;
3407;SDS011;1717;50.240;8.406;2023-11-19T03:30:55;3.30;;;3.00;;
3407;SDS011;1717;50.240;8.406;2023-11-19T03:33:22;3.07;;;2.50;;
3407;SDS011;1717;50.240;8.406;2023-11-19T03:35:54;3.10;;;2.80;;
3407;SDS011;1717;50.240;8.406;2023-11-19T03:38:21;2.50;;;2.30;;
3407;SDS011;1717;50.240;8.406;2023-11-19T03:40:48;3.67;;;3.37;;
3407;SDS011;1717;50.240;8.406;2023-11-19T03:43:15;3.10;;;2.80;;
3407;SDS011;1717;50.240;8.406;2023-11-19T03:45:42;2.73;;;2.53;;
3407;SDS011;1717;50.240;8.406;2023-11-19T03:48:08;3.10;;;2.80;;
3407;SDS011;1717;50.240;8.406;2023-11-19T03:50:35;2.00;;;1.90;;
3407;SDS011;1717;50.240;8.406;2023-11-19T03:53:03;1.87;;;1.77;;
3407;SDS011;1717;50.240;8.406;2023-11-19T03:55:30;2.80;;;2.60;;
3407;SDS011;1717;50.240;8.406;2023-11-19T03:57:57;2.90;;;2.43;;
3407;SDS011;1717;50.240;8.406;2023-11-19T04:00:24;2.73;;;2.07;;
3407;SDS011;1717;50.240;8.406;2023-11-19T04:02:52;1.80;;;1.70;;
3407;SDS011;1717;50.240;8.406;2023-11-19T04:05:19;2.30;;;2.10;;
3407;SDS011;1717;50.240;8.406;2023-11-19T04:07:46;1.67;;;1.57;;
3407;SDS011;1717;50.240;8.406;2023-11-19T04:10:14;2.23;;;1.90;;
3407;SDS011;1717;50.240;8.406;2023-11-19T04:12:42;1.40;;;1.30;;
3407;SDS011;1717;50.240;8.406;2023-11-19T04:15:10;1.87;;;1.50;;
3407;SDS011;1717;50.240;8.406;2023-11-19T04:17:37;1.73;;;1.63;;
3407;SDS011;1717;50.240;8.406;2023-11-19T04:20:05;1.67;;;1.57;;
3407;SDS011;1717;50.240;8.406;2023-11-19T04:22:35;1.77;;;1.17;;
3407;SDS011;1717;50.240;8.406;2023-11-19T04:25:03;1.77;;;1.67;;
3407;SDS011;1717;50.240;8.406;2023-11-19T04:27:32;4.40;;;1.63;;
3407;SDS011;1717;50.240;8.406;2023-11-19T04:29:58;1.73;;;1.43;;
3407;SDS011;1717;50.240;8.406;2023-11-19T04:32:27;1.73;;;1.63;;
3407;SDS011;1717;50.240;8.406;2023-11-19T04:34:54;2.90;;;1.50;;
3407;SDS011;1717;50.240;8.406;2023-11-19T04:37:21;1.60;;;1.50;;
3407;SDS011;1717;50.240;8.406;2023-11-19T04:39:48;1.83;;;1.70;;
3407;SDS011;1717;50.240;8.406;2023-11-19T04:42:14;1.23;;;1.23;;
3407;SDS011;1717;50.240;8.406;2023-11-19T04:44:44;1.20;;;1.10;;
3407;SDS011;1717;50.240;8.406;2023-11-19T04:47:10;1.47;;;1.37;;
3407;SDS011;1717;50.240;8.406;2023-11-19T04:49:39;2.03;;;1.40;;
3407;SDS011;1717;50.240;8.406;2023-11-19T04:52:07;1.23;;;1.23;;
3407;SDS011;1717;50.240;8.406;2023-11-19T04:54:35;1.33;;;1.23;;
3407;SDS011;1717;50.240;8.406;2023-11-19T04:57:01;1.83;;;1.73;;
3407;SDS011;1717;50.240;8.406;2023-11-19T04:59:29;1.77;;;1.60;;
3407;SDS011;1717;50.240;8.406;2023-11-19T05:01:57;1.80;;;1.70;;
3407;SDS011;1717;50.240;8.406;2023-11-19T05:04:24;1.60;;;1.50;;
3407;SDS011;1717;50.240;8.406;2023-11-19T05:06:51;1.97;;;1.23;;
3407;SDS011;1717;50.240;8.406;2023-11-19T05:09:18;1.67;;;1.57;;
3407;SDS011;1717;50.240;8.406;2023-11-19T05:11:45;1.70;;;1.60;;
3407;SDS011;1717;50.240;8.406;2023-11-19T05:14:12;1.30;;;1.20;;
3407;SDS011;1717;50.240;8.406;2023-11-19T05:16:39;1.30;;;1.20;;
3407;SDS011;1717;50.240;8.406;2023-11-19T05:19:07;1.47;;;1.37;;
3407;SDS011;1717;50.240;8.406;2023-11-19T05:21:35;1.60;;;1.40;;
3407;SDS011;1717;50.240;8.406;2023-11-19T05:24:01;1.60;;;0.90;;
3407;SDS011;1717;50.240;8.406;2023-11-19T05:26:29;1.23;;;1.13;;
3407;SDS011;1717;50.240;8.406;2023-11-19T05:28:56;1.30;;;1.20;;
3407;SDS011;1717;50.240;8.406;2023-11-19T05:31:23;1.00;;;0.93;;
3407;SDS011;1717;50.240;8.406;2023-11-19T05:33:50;1.40;;;1.30;;
3407;SDS011;1717;50.240;8.406;2023-11-19T05:36:18;1.07;;;0.97;;
3407;SDS011;1717;50.240;8.406;2023-11-19T05:38:45;1.20;;;1.10;;
3407;SDS011;1717;50.240;8.406;2023-11-19T05:41:12;0.90;;;0.90;;
3407;SDS011;1717;50.240;8.406;2023-11-19T05:43:39;1.40;;;1.30;;
3407;SDS011;1717;50.240;8.406;2023-11-19T05:46:06;1.37;;;1.27;;
3407;SDS011;1717;50.240;8.406;2023-11-19T05:48:34;1.10;;;1.00;;
3407;SDS011;1717;50.240;8.406;2023-11-19T05:51:00;0.93;;;0.93;;
3407;SDS011;1717;50.240;8.406;2023-11-19T05:53:29;1.50;;;1.40;;
3407;SDS011;1717;50.240;8.406;2023-11-19T05:55:56;1.20;;;1.10;;
3407;SDS011;1717;50.240;8.406;2023-11-19T05:58:23;1.63;;;0.83;;
3407;SDS011;1717;50.240;8.406;2023-11-19T06:00:53;1.10;;;1.03;;
3407;SDS011;1717;50.240;8.406;2023-11-19T06:03:20;1.03;;;1.03;;
3407;SDS011;1717;50.240;8.406;2023-11-19T06:05:47;0.70;;;0.70;;
3407;SDS011;1717;50.240;8.406;2023-11-19T06:08:14;1.20;;;1.10;;
3407;SDS011;1717;50.240;8.406;2023-11-19T06:10:43;0.93;;;0.90;;
3407;SDS011;1717;50.240;8.406;2023-11-19T06:13:12;1.60;;;1.00;;
3407;SDS011;1717;50.240;8.406;2023-11-19T06:15:40;1.40;;;0.90;;
3407;SDS011;1717;50.240;8.406;2023-11-19T06:18:07;1.13;;;1.10;;
3407;SDS011;1717;50.240;8.406;2023-11-19T06:20:35;0.93;;;0.93;;
3407;SDS011;1717;50.240;8.406;2023-11-19T06:23:02;1.30;;;1.20;;
3407;SDS011;1717;50.240;8.406;2023-11-19T06:25:29;1.10;;;1.10;;
3407;SDS011;1717;50.240;8.406;2023-11-19T06:27:57;1.60;;;1.43;;
3407;SDS011;1717;50.240;8.406;2023-11-19T06:30:24;0.97;;;0.97;;
3407;SDS011;1717;50.240;8.406;2023-11-19T06:32:53;1.17;;;1.10;;
3407;SDS011;1717;50.240;8.406;2023-11-19T06:35:20;1.47;;;1.20;;
3407;SDS011;1717;50.240;8.406;2023-11-19T06:37:47;1.10;;;1.03;;
3407;SDS011;1717;50.240;8.406;2023-11-19T06:40:13;0.90;;;0.90;;
3407;SDS011;1717;50.240;8.406;2023-11-19T06:42:41;1.00;;;1.00;;
3407;SDS011;1717;50.240;8.406;2023-11-19T06:45:09;1.07;;;0.87;;
3407;SDS011;1717;50.240;8.406;2023-11-19T06:47:36;1.57;;;1.03;;
3407;SDS011;1717;50.240;8.406;2023-11-19T06:50:04;1.47;;;0.80;;
3407;SDS011;1717;50.240;8.406;2023-11-19T06:52:32;1.10;;;1.00;;
3407;SDS011;1717;50.240;8.406;2023-11-19T06:54:59;1.30;;;1.20;;
3407;SDS011;1717;50.240;8.406;2023-11-19T06:57:26;1.33;;;1.23;;
3407;SDS011;1717;50.240;8.406;2023-11-19T06:59:54;1.30;;;1.20;;
3407;SDS011;1717;50.240;8.406;2023-11-19T07:02:22;0.97;;;0.80;;
3407;SDS011;1717;50.240;8.406;2023-11-19T07:04:49;1.13;;;1.00;;
3407;SDS011;1717;50.240;8.406;2023-11-19T07:07:16;1.40;;;1.30;;
3407;SDS011;1717;50.240;8.406;2023-11-19T07:09:43;1.30;;;1.20;;
3407;SDS011;1717;50.240;8.406;2023-11-19T07:12:10;1.13;;;0.80;;
3407;SDS011;1717;50.240;8.406;2023-11-19T07:14:38;1.47;;;1.20;;
3407;SDS011;1717;50.240;8.406;2023-11-19T07:17:05;1.17;;;1.10;;
3407;SDS011;1717;50.240;8.406;2023-11-19T07:19:33;1.40;;;1.30;;
3407;SDS011;1717;50.240;8.406;2023-11-19T07:22:01;1.37;;;1.17;;
3407;SDS011;1717;50.240;8.406;2023-11-19T07:24:28;1.10;;;1.00;;
3407;SDS011;1717;50.240;8.406;2023-11-19T07:26:55;0.90;;;0.83;;
3407;SDS011;1717;50.240;8.406;2023-11-19T07:29:22;2.70;;;0.80;;
3407;SDS011;1717;50.240;8.406;2023-11-19T07:31:48;2.20;;;1.27;;
3407;SDS011;1717;50.240;8.406;2023-11-19T07:34:16;1.40;;;0.80;;
3407;SDS011;1717;50.240;8.406;2023-11-19T07:36:43;1.00;;;0.83;;
3407;SDS011;1717;50.240;8.406;2023-11-19T07:39:10;4.10;;;1.10;;
3407;SDS011;1717;50.240;8.406;2023-11-19T07:41:37;1.70;;;1.20;;
3407;SDS011;1717;50.240;8.406;2023-11-19T07:44:04;2.43;;;1.60;;
3407;SDS011;1717;50.240;8.406;2023-11-19T07:46:31;2.10;;;1.30;;
3407;SDS011;1717;50.240;8.406;2023-11-19T07:48:58;2.13;;;1.67;;
3407;SDS011;1717;50.240;8.406;2023-11-19T07:51:25;1.70;;;1.37;;
3407;SDS011;1717;50.240;8.406;2023-11-19T07:53:53;2.40;;;1.57;;
3407;SDS011;1717;50.240;8.406;2023-11-19T07:56:20;4.23;;;1.73;;
3407;SDS011;1717;50.240;8.406;2023-11-19T07:58:47;2.87;;;1.37;;
3407;SDS011;1717;50.240;8.406;2023-11-19T08:01:15;2.90;;;1.60;;
3407;SDS011;1717;50.240;8.406;2023-11-19T08:03:42;2.80;;;1.80;;
3407;SDS011;1717;50.240;8.406;2023-11-19T08:06:09;1.73;;;1.63;;
3407;SDS011;1717;50.240;8.406;2023-11-19T08:08:36;2.10;;;1.90;;
3407;SDS011;1717;50.240;8.406;2023-11-19T08:11:05;3.37;;;1.77;;
3407;SDS011;1717;50.240;8.406;2023-11-19T08:13:32;4.07;;;2.30;;
3407;SDS011;1717;50.240;8.406;2023-11-19T08:15:59;2.10;;;1.83;;
3407;SDS011;1717;50.240;8.406;2023-11-19T08:18:26;2.27;;;1.70;;
3407;SDS011;1717;50.240;8.406;2023-11-19T08:20:53;4.93;;;2.10;;
3407;SDS011;1717;50.240;8.406;2023-11-19T08:23:21;2.40;;;2.20;;
3407;SDS011;1717;50.240;8.406;2023-11-19T08:25:50;4.70;;;2.00;;
3407;SDS011;1717;50.240;8.406;2023-11-19T08:28:19;6.43;;;2.47;;
3407;SDS011;1717;50.240;8.406;2023-11-19T08:30:46;4.40;;;1.97;;
3407;SDS011;1717;50.240;8.406;2023-11-19T08:33:12;7.03;;;2.20;;
3407;SDS011;1717;50.240;8.406;2023-11-19T08:35:40;4.13;;;2.20;;
3407;SDS011;1717;50.240;8.406;2023-11-19T08:38:06;5.53;;;2.43;;
3407;SDS011;1717;50.240;8.406;2023-11-19T08:40:33;6.53;;;2.93;;
3407;SDS011;1717;50.240;8.406;2023-11-19T08:43:00;4.57;;;2.87;;
3407;SDS011;1717;50.240;8.406;2023-11-19T08:45:28;7.77;;;4.10;;
3407;SDS011;1717;50.240;8.406;2023-11-19T08:47:56;3.67;;;2.30;;
3407;SDS011;1717;50.240;8.406;2023-11-19T08:50:23;12.67;;;2.90;;
3407;SDS011;1717;50.240;8.406;2023-11-19T08:52:50;7.37;;;2.53;;
3407;SDS011;1717;50.240;8.406;2023-11-19T08:55:17;9.50;;;3.63;;
3407;SDS011;1717;50.240;8.406;2023-11-19T08:57:44;8.70;;;3.50;;
3407;SDS011;1717;50.240;8.406;2023-11-19T09:00:11;6.50;;;2.47;;
3407;SDS011;1717;50.240;8.406;2023-11-19T09:02:40;11.97;;;2.83;;
3407;SDS011;1717;50.240;8.406;2023-11-19T09:05:08;10.97;;;2.43;;
3407;SDS011;1717;50.240;8.406;2023-11-19T09:07:35;9.00;;;3.10;;
3407;SDS011;1717;50.240;8.406;2023-11-19T09:10:01;10.03;;;3.83;;
3407;SDS011;1717;50.240;8.406;2023-11-19T09:12:30;5.33;;;2.63;;
3407;SDS011;1717;50.240;8.406;2023-11-19T09:14:57;5.40;;;3.03;;
3407;SDS011;1717;50.240;8.406;2023-11-19T09:17:24;8.60;;;2.30;;
3407;SDS011;1717;50.240;8.406;2023-11-19T09:19:52;9.33;;;2.37;;
3407;SDS011;1717;50.240;8.406;2023-11-19T09:22:19;4.90;;;2.40;;
3407;SDS011;1717;50.240;8.406;2023-11-19T09:24:46;6.50;;;2.97;;
3407;SDS011;1717;50.240;8.406;2023-11-19T09:27:13;11.00;;;2.43;;
3407;SDS011;1717;50.240;8.406;2023-11-19T09:29:40;5.70;;;2.23;;
3407;SDS011;1717;50.240;8.406;2023-11-19T09:32:08;10.97;;;3.97;;
3407;SDS011;1717;50.240;8.406;2023-11-19T09:34:35;10.80;;;2.07;;
3407;SDS011;1717;50.240;8.406;2023-11-19T09:37:03;5.93;;;1.87;;
3407;SDS011;1717;50.240;8.406;2023-11-19T09:39:30;12.93;;;2.80;;
3407;SDS011;1717;50.240;8.406;2023-11-19T09:41:57;4.53;;;2.37;;
3407;SDS011;1717;50.240;8.406;2023-11-19T09:44:24;7.03;;;2.53;;
3407;SDS011;1717;50.240;8.406;2023-11-19T09:46:51;8.67;;;2.73;;
3407;SDS011;1717;50.240;8.406;2023-11-19T09:49:20;8.13;;;2.73;;
3407;SDS011;1717;50.240;8.406;2023-11-19T09:51:48;7.73;;;3.53;;
3407;SDS011;1717;50.240;8.406;2023-11-19T09:54:17;9.23;;;2.53;;
3407;SDS011;1717;50.240;8.406;2023-11-19T09:56:43;5.00;;;2.53;;
3407;SDS011;1717;50.240;8.406;2023-11-19T09:59:11;6.67;;;2.63;;
3407;SDS011;1717;50.240;8.406;2023-11-19T10:01:39;9.60;;;2.47;;
3407;SDS011;1717;50.240;8.406;2023-11-19T10:04:06;12.53;;;2.97;;
3407;SDS011;1717;50.240;8.406;2023-11-19T10:06:33;7.90;;;2.63;;
3407;SDS011;1717;50.240;8.406;2023-11-19T10:09:00;9.53;;;2.20;;
3407;SDS011;1717;50.240;8.406;2023-11-19T10:11:31;8.03;;;2.07;;
3407;SDS011;1717;50.240;8.406;2023-11-19T10:13:58;5.33;;;2.70;;
3407;SDS011;1717;50.240;8.406;2023-11-19T10:16:28;14.87;;;3.10;;
3407;SDS011;1717;50.240;8.406;2023-11-19T10:18:56;6.07;;;2.40;;
3407;SDS011;1717;50.240;8.406;2023-11-19T10:21:23;8.40;;;2.37;;
3407;SDS011;1717;50.240;8.406;2023-11-19T10:23:53;12.93;;;3.03;;
3407;SDS011;1717;50.240;8.406;2023-11-19T10:26:22;8.80;;;2.77;;
3407;SDS011;1717;50.240;8.406;2023-11-19T10:28:51;10.43;;;3.53;;
3407;SDS011;1717;50.240;8.406;2023-11-19T10:31:19;7.90;;;2.27;;
3407;SDS011;1717;50.240;8.406;2023-11-19T10:33:50;11.07;;;3.00;;
3407;SDS011;1717;50.240;8.406;2023-11-19T10:36:17;9.10;;;2.50;;
3407;SDS011;1717;50.240;8.406;2023-11-19T10:38:54;11.37;;;3.60;;
3407;SDS011;1717;50.240;8.406;2023-11-19T10:41:28;5.93;;;2.90;;
3407;SDS011;1717;50.240;8.406;2023-11-19T10:43:57;11.83;;;3.97;;
3407;SDS011;1717;50.240;8.406;2023-11-19T10:46:24;4.70;;;2.07;;
3407;SDS011;1717;50.240;8.406;2023-11-19T10:49:02;12.30;;;3.37;;
3407;SDS011;1717;50.240;8.406;2023-11-19T10:51:29;10.70;;;2.53;;
3407;SDS011;1717;50.240;8.406;2023-11-19T10:53:57;6.40;;;2.70;;
3407;SDS011;1717;50.240;8.406;2023-11-19T10:56:29;10.23;;;3.03;;
3407;SDS011;1717;50.240;8.406;2023-11-19T10:58:58;8.23;;;2.23;;
3407;SDS011;1717;50.240;8.406;2023-11-19T11:01:26;10.20;;;2.93;;
3407;SDS011;1717;50.240;8.406;2023-11-19T11:03:59;11.50;;;2.80;;
3407;SDS011;1717;50.240;8.406;2023-11-19T11:06:26;13.23;;;3.30;;
3407;SDS011;1717;50.240;8.406;2023-11-19T11:08:53;16.30;;;3.90;;
3407;SDS011;1717;50.240;8.406;2023-11-19T11:11:21;9.07;;;3.10;;
3407;SDS011;1717;50.240;8.406;2023-11-19T11:13:48;8.63;;;2.60;;
3407;SDS011;1717;50.240;8.406;2023-11-19T11:16:18;7.10;;;3.10;;
3407;SDS011;1717;50.240;8.406;2023-11-19T11:18:45;11.53;;;2.93;;
3407;SDS011;1717;50.240;8.406;2023-11-19T11:21:15;11.80;;;2.80;;
3407;SDS011;1717;50.240;8.406;2023-11-19T11:23:56;7.00;;;2.20;;
3407;SDS011;1717;50.240;8.406;2023-11-19T11:26:53;9.93;;;2.70;;
3407;SDS011;1717;50.240;8.406;2023-11-19T11:29:35;14.97;;;4.20;;
3407;SDS011;1717;50.240;8.406;2023-11-19T11:32:16;12.43;;;3.63;;
3407;SDS011;1717;50.240;8.406;2023-11-19T11:37:49;19.13;;;3.83;;
3407;SDS011;1717;50.240;8.406;2023-11-19T11:40:19;14.10;;;2.73;;
3407;SDS011;1717;50.240;8.406;2023-11-19T11:42:48;13.73;;;2.97;;
3407;SDS011;1717;50.240;8.406;2023-11-19T11:45:16;9.40;;;3.00;;
3407;SDS011;1717;50.240;8.406;2023-11-19T11:53:30;6.73;;;2.57;;
3407;SDS011;1717;50.240;8.406;2023-11-19T11:55:57;12.00;;;3.40;;
3407;SDS011;1717;50.240;8.406;2023-11-19T11:58:27;14.47;;;3.50;;
3407;SDS011;1717;50.240;8.406;2023-11-19T12:00:57;9.80;;;4.03;;
3407;SDS011;1717;50.240;8.406;2023-11-19T12:03:28;14.23;;;3.57;;
3407;SDS011;1717;50.240;8.406;2023-11-19T12:05:56;13.23;;;3.37;;
3407;SDS011;1717;50.240;8.406;2023-11-19T12:08:24;11.80;;;3.00;;
3407;SDS011;1717;50.240;8.406;2023-11-19T12:10:53;9.90;;;3.00;;
3407;SDS011;1717;50.240;8.406;2023-11-19T12:13:22;9.47;;;3.10;;
3407;SDS011;1717;50.240;8.406;2023-11-19T12:16:08;16.63;;;3.80;;
3407;SDS011;1717;50.240;8.406;2023-11-19T12:18:38;11.60;;;3.07;;
3407;SDS011;1717;50.240;8.406;2023-11-19T12:21:06;11.93;;;2.60;;
3407;SDS011;1717;50.240;8.406;2023-11-19T12:23:34;11.10;;;2.77;;
3407;SDS011;1717;50.240;8.406;2023-11-19T12:26:03;14.90;;;3.20;;
3407;SDS011;1717;50.240;8.406;2023-11-19T12:28:30;8.30;;;2.80;;
3407;SDS011;1717;50.240;8.406;2023-11-19T12:31:07;11.27;;;2.67;;
3407;SDS011;1717;50.240;8.406;2023-11-19T12:33:35;12.67;;;2.80;;
3407;SDS011;1717;50.240;8.406;2023-11-19T12:36:04;6.87;;;2.80;;
3407;SDS011;1717;50.240;8.406;2023-11-19T12:38:33;10.00;;;3.57;;
3407;SDS011;1717;50.240;8.406;2023-11-19T12:41:03;6.93;;;2.80;;
3407;SDS011;1717;50.240;8.406;2023-11-19T12:43:30;18.53;;;3.30;;
3407;SDS011;1717;50.240;8.406;2023-11-19T12:45:57;14.60;;;4.93;;
3407;SDS011;1717;50.240;8.406;2023-11-19T12:48:24;13.23;;;3.77;;
3407;SDS011;1717;50.240;8.406;2023-11-19T12:50:52;11.90;;;2.07;;
3407;SDS011;1717;50.240;8.406;2023-11-19T12:53:19;13.13;;;3.37;;
3407;SDS011;1717;50.240;8.406;2023-11-19T12:55:46;8.40;;;2.27;;
3407;SDS011;1717;50.240;8.406;2023-11-19T12:58:27;14.77;;;3.27;;
3407;SDS011;1717;50.240;8.406;2023-11-19T13:00:58;7.90;;;2.07;;
3407;SDS011;1717;50.240;8.406;2023-11-19T13:03:29;6.80;;;2.30;;
3407;SDS011;1717;50.240;8.406;2023-11-19T13:06:05;9.33;;;3.10;;
3407;SDS011;1717;50.240;8.406;2023-11-19T13:08:38;12.47;;;2.33;;
3407;SDS011;1717;50.240;8.406;2023-11-19T13:11:06;9.97;;;2.70;;
3407;SDS011;1717;50.240;8.406;2023-11-19T13:16:21;4.30;;;1.93;;
3407;SDS011;1717;50.240;8.406;2023-11-19T13:18:48;8.40;;;2.60;;
3407;SDS011;1717;50.240;8.406;2023-11-19T13:21:16;4.87;;;2.20;;
3407;SDS011;1717;50.240;8.406;2023-11-19T13:23:44;6.00;;;1.90;;
3407;SDS011;1717;50.240;8.406;2023-11-19T13:26:11;5.40;;;2.30;;
3407;SDS011;1717;50.240;8.406;2023-11-19T13:28:38;7.23;;;2.00;;
3407;SDS011;1717;50.240;8.406;2023-11-19T13:31:05;10.87;;;2.60;;
3407;SDS011;1717;50.240;8.406;2023-11-19T13:33:32;6.77;;;2.20;;
3407;SDS011;1717;50.240;8.406;2023-11-19T13:35:59;10.40;;;2.57;;
3407;SDS011;1717;50.240;8.406;2023-11-19T13:38:32;5.83;;;2.13;;
3407;SDS011;1717;50.240;8.406;2023-11-19T13:40:59;5.37;;;2.10;;
3407;SDS011;1717;50.240;8.406;2023-11-19T13:43:26;8.30;;;2.33;;
3407;SDS011;1717;50.240;8.406;2023-11-19T13:45:53;6.53;;;2.70;;
3407;SDS011;1717;50.240;8.406;2023-11-19T13:48:21;7.93;;;2.70;;
3407;SDS011;1717;50.240;8.406;2023-11-19T13:50:48;9.67;;;3.40;;
3407;SDS011;1717;50.240;8.406;2023-11-19T13:53:15;7.87;;;2.43;;
3407;SDS011;1717;50.240;8.406;2023-11-19T13:55:43;11.53;;;2.10;;
3407;SDS011;1717;50.240;8.406;2023-11-19T13:58:10;8.43;;;2.43;;
3407;SDS011;1717;50.240;8.406;2023-11-19T14:00:37;9.00;;;2.57;;
3407;SDS011;1717;50.240;8.406;2023-11-19T14:03:04;14.50;;;3.10;;
3407;SDS011;1717;50.240;8.406;2023-11-19T14:05:31;5.10;;;2.10;;
3407;SDS011;1717;50.240;8.406;2023-11-19T14:07:58;9.53;;;2.73;;
3407;SDS011;1717;50.240;8.406;2023-11-19T14:10:26;9.13;;;2.30;;
3407;SDS011;1717;50.240;8.406;2023-11-19T14:12:54;13.10;;;2.80;;
3407;SDS011;1717;50.240;8.406;2023-11-19T14:15:22;6.53;;;1.90;;
3407;SDS011;1717;50.240;8.406;2023-11-19T14:17:48;7.60;;;2.53;;
3407;SDS011;1717;50.240;8.406;2023-11-19T14:20:15;9.60;;;3.13;;
3407;SDS011;1717;50.240;8.406;2023-11-19T14:22:43;8.37;;;2.50;;
3407;SDS011;1717;50.240;8.406;2023-11-19T14:25:10;6.53;;;2.17;;
3407;SDS011;1717;50.240;8.406;2023-11-19T14:27:37;11.03;;;2.23;;
3407;SDS011;1717;50.240;8.406;2023-11-19T14:30:07;13.20;;;3.20;;
3407;SDS011;1717;50.240;8.406;2023-11-19T14:32:36;4.67;;;2.20;;
3407;SDS011;1717;50.240;8.406;2023-11-19T14:35:03;8.20;;;2.10;;
3407;SDS011;1717;50.240;8.406;2023-11-19T14:37:30;5.90;;;2.10;;
3407;SDS011;1717;50.240;8.406;2023-11-19T14:39:57;9.83;;;2.70;;
3407;SDS011;1717;50.240;8.406;2023-11-19T14:42:24;9.10;;;2.10;;
3407;SDS011;1717;50.240;8.406;2023-11-19T14:44:51;6.60;;;2.30;;
3407;SDS011;1717;50.240;8.406;2023-11-19T14:47:20;8.23;;;3.13;;
3407;SDS011;1717;50.240;8.406;2023-11-19T14:49:47;8.90;;;2.67;;
3407;SDS011;1717;50.240;8.406;2023-11-19T14:52:14;13.50;;;2.20;;
3407;SDS011;1717;50.240;8.406;2023-11-19T14:54:41;12.10;;;2.63;;
3407;SDS011;1717;50.240;8.406;2023-11-19T14:57:08;6.90;;;2.10;;
3407;SDS011;1717;50.240;8.406;2023-11-19T14:59:35;8.87;;;2.27;;
3407;SDS011;1717;50.240;8.406;2023-11-19T15:02:02;4.97;;;1.93;;
3407;SDS011;1717;50.240;8.406;2023-11-19T15:04:30;7.60;;;2.30;;
3407;SDS011;1717;50.240;8.406;2023-11-19T15:06:57;5.10;;;2.07;;
3407;SDS011;1717;50.240;8.406;2023-11-19T15:09:25;4.10;;;2.20;;
3407;SDS011;1717;50.240;8.406;2023-11-19T15:11:53;7.40;;;1.67;;
3407;SDS011;1717;50.240;8.406;2023-11-19T15:14:20;9.53;;;2.30;;
3407;SDS011;1717;50.240;8.406;2023-11-19T15:16:48;5.20;;;1.97;;
3407;SDS011;1717;50.240;8.406;2023-11-19T15:19:16;3.83;;;1.70;;
3407;SDS011;1717;50.240;8.406;2023-11-19T15:21:46;6.63;;;1.67;;
3407;SDS011;1717;50.240;8.406;2023-11-19T15:24:13;6.43;;;1.40;;
3407;SDS011;1717;50.240;8.406;2023-11-19T15:26:40;6.10;;;1.67;;
3407;SDS011;1717;50.240;8.406;2023-11-19T15:29:07;11.73;;;2.10;;